Time;durP1;ratioP1;P1;durP2;ratioP2;P2;SDS_P1;SDS_P2;PMS_P1;PMS_P2;Temp;Humidity;BMP_temperature;BMP_pressure;BME280_temperature;BME280_humidity;BME280_pressure;Samples;Min_cycle;Max_cycle;Signal;HPM_P1;HPM_P2
2023/12/16 00:00:15;;;;;;;;;;;8.00;99.90;;;;;;5052596;28;19928;-83
2023/12/16 00:02:42;;;;;;;;;;;8.00;99.90;;;;;;5049041;28;19925;-83
2023/12/16 00:05:09;;;;;;;;;;;8.00;99.90;;;;;;5042746;28;19979;-84
2023/12/16 00:07:37;;;;;;;;;;;8.00;99.90;;;;;;5054311;28;19978;-85
2023/12/16 00:10:06;;;;;;;;;;;8.00;99.90;;;;;;5054487;28;19929;-84
2023/12/16 00:12:33;;;;;;;;;;;8.00;99.90;;;;;;5055127;28;19967;-84
2023/12/16 00:14:59;;;;;;;;;;;8.10;99.90;;;;;;5054245;28;19924;-82
2023/12/16 00:17:26;;;;;;;;;;;8.10;99.90;;;;;;5054253;28;19967;-81
2023/12/16 00:19:53;;;;;;;;;;;8.10;99.90;;;;;;5052302;28;20296;-80
2023/12/16 00:22:19;;;;;;;;;;;8.10;99.90;;;;;;5054748;28;19937;-83
2023/12/16 00:24:48;;;;;;;;;;;8.10;99.90;;;;;;5051786;28;19991;-82
2023/12/16 00:27:14;;;;;;;;;;;8.10;99.90;;;;;;5053059;28;19975;-82
2023/12/16 00:29:41;;;;;;;;;;;8.10;99.90;;;;;;5057841;28;20397;-82
2023/12/16 00:32:08;;;;;;;;;;;8.10;99.90;;;;;;5060485;28;19931;-81
2023/12/16 00:34:35;;;;;;;;;;;8.10;99.90;;;;;;5055622;28;19925;-83
2023/12/16 00:37:05;;;;;;;;;;;8.10;99.90;;;;;;5043488;28;19929;-81
2023/12/16 00:39:32;;;;;;;;;;;8.10;99.90;;;;;;5047494;28;19932;-81
2023/12/16 00:42:00;;;;;;;;;;;8.10;99.90;;;;;;5052150;28;19954;-84
2023/12/16 00:44:27;;;;;;;;;;;8.10;99.90;;;;;;5045964;28;19929;-81
2023/12/16 00:46:54;;;;;;;;;;;8.10;99.90;;;;;;5050370;28;19928;-83
2023/12/16 00:49:21;;;;;;;;;;;8.10;99.90;;;;;;5046137;28;19971;-80
2023/12/16 00:51:47;;;;;;;;;;;8.10;99.90;;;;;;5053632;28;19925;-84
2023/12/16 00:54:14;;;;;;;;;;;8.10;99.90;;;;;;5053929;28;19929;-83
2023/12/16 00:56:41;;;;;;;;;;;8.10;99.90;;;;;;5054352;28;19975;-81
2023/12/16 00:59:09;;;;;;;;;;;8.10;99.90;;;;;;5052668;28;19979;-83
2023/12/16 01:01:36;;;;;;;;;;;8.10;99.90;;;;;;5054291;28;20011;-81
2023/12/16 01:04:03;;;;;;;;;;;8.10;99.90;;;;;;5051307;28;19925;-80
2023/12/16 01:06:29;;;;;;;;;;;8.10;99.90;;;;;;5053106;28;19929;-81
2023/12/16 01:08:56;;;;;;;;;;;8.10;99.90;;;;;;5054468;28;19925;-81
2023/12/16 01:11:23;;;;;;;;;;;8.10;99.90;;;;;;5054773;28;19979;-81
2023/12/16 01:13:50;;;;;;;;;;;8.10;99.90;;;;;;5053226;28;19974;-81
2023/12/16 01:16:17;;;;;;;;;;;8.10;99.90;;;;;;5052974;28;20011;-83
2023/12/16 01:18:44;;;;;;;;;;;8.10;99.90;;;;;;5052702;28;19925;-82
2023/12/16 01:21:11;;;;;;;;;;;8.10;99.90;;;;;;5053704;28;19929;-82
2023/12/16 01:23:38;;;;;;;;;;;8.10;99.90;;;;;;5053875;28;19925;-83
2023/12/16 01:26:05;;;;;;;;;;;8.00;99.90;;;;;;5050790;28;19929;-83
2023/12/16 01:28:32;;;;;;;;;;;8.00;99.90;;;;;;5052815;28;20018;-83
2023/12/16 01:30:59;;;;;;;;;;;8.00;99.90;;;;;;5051725;28;19924;-81
2023/12/16 01:33:27;;;;;;;;;;;8.00;99.90;;;;;;5051031;28;19975;-82
2023/12/16 01:35:54;;;;;;;;;;;8.00;99.90;;;;;;5052589;28;19960;-81
2023/12/16 01:38:21;;;;;;;;;;;8.00;99.90;;;;;;5053747;28;19925;-82
2023/12/16 01:40:47;;;;;;;;;;;8.00;99.90;;;;;;5051387;28;20326;-80
2023/12/16 01:43:14;;;;;;;;;;;8.00;99.90;;;;;;5051254;28;19929;-80
2023/12/16 01:45:41;;;;;;;;;;;8.00;99.90;;;;;;5050908;28;19952;-84
2023/12/16 01:48:09;;;;;;;;;;;7.90;99.90;;;;;;5044939;28;19943;-83
2023/12/16 01:50:37;;;;;;;;;;;7.90;99.90;;;;;;5048758;28;19972;-84
2023/12/16 01:53:05;;;;;;;;;;;7.90;99.90;;;;;;5053678;28;19986;-85
2023/12/16 01:55:32;;;;;;;;;;;7.90;99.90;;;;;;5053712;28;20311;-83
2023/12/16 01:57:59;;;;;;;;;;;7.90;99.90;;;;;;5051840;28;20368;-82
2023/12/16 02:00:27;;;;;;;;;;;7.80;99.90;;;;;;5052191;28;19984;-82
2023/12/16 02:02:54;;;;;;;;;;;7.80;99.90;;;;;;5051037;28;19925;-83
2023/12/16 02:05:21;;;;;;;;;;;7.80;99.90;;;;;;5051626;28;20419;-83
2023/12/16 02:07:49;;;;;;;;;;;7.80;99.90;;;;;;5052429;28;19925;-82
2023/12/16 02:10:16;;;;;;;;;;;7.70;99.90;;;;;;5051838;28;19976;-81
2023/12/16 02:12:43;;;;;;;;;;;7.70;99.90;;;;;;5051729;28;19925;-82
2023/12/16 02:15:10;;;;;;;;;;;7.60;99.90;;;;;;5051327;28;19929;-84
2023/12/16 02:17:37;;;;;;;;;;;7.60;99.90;;;;;;5050800;28;19925;-84
2023/12/16 02:20:04;;;;;;;;;;;7.50;99.90;;;;;;5050325;28;19925;-85
2023/12/16 02:22:31;;;;;;;;;;;7.40;99.90;;;;;;5052377;28;19924;-84
2023/12/16 02:25:00;;;;;;;;;;;7.40;99.90;;;;;;5051960;28;20346;-84
2023/12/16 02:27:26;;;;;;;;;;;7.40;99.90;;;;;;5047209;28;19932;-84
2023/12/16 02:29:53;;;;;;;;;;;7.40;99.90;;;;;;5051625;28;19940;-85
2023/12/16 02:32:21;;;;;;;;;;;7.40;99.90;;;;;;5046098;28;19998;-82
2023/12/16 02:34:48;;;;;;;;;;;7.30;99.90;;;;;;5049504;28;19932;-83
2023/12/16 02:37:15;;;;;;;;;;;7.30;99.90;;;;;;5054380;28;20005;-82
2023/12/16 02:39:44;;;;;;;;;;;7.30;99.90;;;;;;5052025;28;20347;-83
2023/12/16 02:42:12;;;;;;;;;;;7.30;99.90;;;;;;5052747;28;19929;-83
2023/12/16 02:44:39;;;;;;;;;;;7.30;99.90;;;;;;5054601;28;19971;-82
2023/12/16 02:47:07;;;;;;;;;;;7.30;99.90;;;;;;5053924;28;19925;-83
2023/12/16 02:49:34;;;;;;;;;;;7.20;99.90;;;;;;5051319;28;20284;-83
2023/12/16 02:52:00;;;;;;;;;;;7.20;99.90;;;;;;5044998;28;19948;-83
2023/12/16 02:54:28;;;;;;;;;;;7.20;99.90;;;;;;5051909;28;19932;-83
2023/12/16 02:56:54;;;;;;;;;;;7.20;99.90;;;;;;5051561;28;19933;-85
2023/12/16 02:59:22;;;;;;;;;;;7.20;99.90;;;;;;5051534;28;19978;-84
2023/12/16 03:01:49;;;;;;;;;;;7.20;99.90;;;;;;5052168;28;19971;-84
2023/12/16 03:04:16;;;;;;;;;;;7.10;99.90;;;;;;5052290;28;19971;-84
2023/12/16 03:06:43;;;;;;;;;;;7.10;99.90;;;;;;5055319;28;19971;-84
2023/12/16 03:09:10;;;;;;;;;;;7.10;99.90;;;;;;5052430;28;19928;-83
2023/12/16 03:11:36;;;;;;;;;;;7.10;99.90;;;;;;5055412;28;20023;-85
2023/12/16 03:14:03;;;;;;;;;;;7.10;99.90;;;;;;5054507;28;19932;-81
2023/12/16 03:16:31;;;;;;;;;;;7.00;99.90;;;;;;5054942;28;19990;-82
2023/12/16 03:18:58;;;;;;;;;;;7.10;99.90;;;;;;5054910;28;19925;-85
2023/12/16 03:21:25;;;;;;;;;;;7.10;99.90;;;;;;5055265;28;20311;-84
2023/12/16 03:23:52;;;;;;;;;;;7.10;99.90;;;;;;5053689;28;19925;-85
2023/12/16 03:26:19;;;;;;;;;;;7.00;99.90;;;;;;5055000;28;19925;-83
2023/12/16 03:28:47;;;;;;;;;;;7.00;99.90;;;;;;5054566;28;19933;-82
2023/12/16 03:31:14;;;;;;;;;;;6.90;99.90;;;;;;5054993;28;20359;-84
2023/12/16 03:33:42;;;;;;;;;;;6.90;99.90;;;;;;5052087;28;21899;-83
2023/12/16 03:36:09;;;;;;;;;;;6.90;99.90;;;;;;5054795;28;19933;-82
2023/12/16 03:38:35;;;;;;;;;;;6.90;99.90;;;;;;5055256;28;19925;-83
2023/12/16 03:41:02;;;;;;;;;;;6.90;99.90;;;;;;5053987;28;19928;-82
2023/12/16 03:43:29;;;;;;;;;;;6.90;99.90;;;;;;5055176;28;19924;-82
2023/12/16 03:45:56;;;;;;;;;;;6.90;99.90;;;;;;5053072;28;19947;-83
2023/12/16 03:48:22;;;;;;;;;;;6.80;99.90;;;;;;5053179;28;19964;-84
2023/12/16 03:50:50;;;;;;;;;;;6.80;99.90;;;;;;5054277;28;19928;-84
2023/12/16 03:53:17;;;;;;;;;;;6.80;99.90;;;;;;5055434;28;19970;-85
2023/12/16 03:55:44;;;;;;;;;;;6.80;99.90;;;;;;5054011;28;19924;-84
2023/12/16 03:58:11;;;;;;;;;;;6.70;99.90;;;;;;5054281;28;19931;-84
2023/12/16 04:00:37;;;;;;;;;;;6.70;99.90;;;;;;5054236;28;19925;-83
2023/12/16 04:03:04;;;;;;;;;;;6.60;99.90;;;;;;5054584;28;19947;-82
2023/12/16 04:05:31;;;;;;;;;;;6.60;99.90;;;;;;5053763;28;19924;-85
2023/12/16 04:07:59;;;;;;;;;;;6.50;99.90;;;;;;5054449;28;19932;-84
2023/12/16 04:10:26;;;;;;;;;;;6.50;99.90;;;;;;5055655;28;19924;-83
2023/12/16 04:12:52;;;;;;;;;;;6.50;99.90;;;;;;5054185;28;19929;-87
2023/12/16 04:15:19;;;;;;;;;;;6.50;99.90;;;;;;5053080;28;19975;-85
2023/12/16 04:17:46;;;;;;;;;;;6.50;99.90;;;;;;5054106;28;19929;-85
2023/12/16 04:20:13;;;;;;;;;;;6.50;99.90;;;;;;5055030;28;19925;-87
2023/12/16 04:22:39;;;;;;;;;;;6.50;99.90;;;;;;5038704;28;19967;-87
2023/12/16 04:25:10;;;;;;;;;;;6.40;99.90;;;;;;5036296;28;19932;-86
2023/12/16 04:27:38;;;;;;;;;;;6.40;99.90;;;;;;5060128;28;20315;-86
2023/12/16 04:30:05;;;;;;;;;;;6.40;99.90;;;;;;5052935;28;19933;-87
2023/12/16 04:32:32;;;;;;;;;;;6.40;99.90;;;;;;5049565;28;19956;-87
2023/12/16 04:34:58;;;;;;;;;;;6.30;99.90;;;;;;5047238;28;19924;-84
2023/12/16 04:37:25;;;;;;;;;;;6.30;99.90;;;;;;5052273;28;19929;-83
2023/12/16 04:39:52;;;;;;;;;;;6.30;99.90;;;;;;5054003;28;19925;-84
2023/12/16 04:42:20;;;;;;;;;;;6.30;99.90;;;;;;5053804;28;20344;-85
2023/12/16 04:44:47;;;;;;;;;;;6.30;99.90;;;;;;5052430;28;19935;-84
2023/12/16 04:47:14;;;;;;;;;;;6.30;99.90;;;;;;5044661;28;19984;-85
2023/12/16 04:49:40;;;;;;;;;;;6.30;99.90;;;;;;5055489;28;19925;-86
2023/12/16 04:52:07;;;;;;;;;;;6.20;99.90;;;;;;5056312;28;19925;-85
2023/12/16 04:54:34;;;;;;;;;;;6.20;99.90;;;;;;5052304;28;19972;-84
2023/12/16 04:57:01;;;;;;;;;;;6.20;99.90;;;;;;5052904;28;20251;-84
2023/12/16 04:59:29;;;;;;;;;;;6.20;99.90;;;;;;5053092;28;19986;-84
2023/12/16 05:01:56;;;;;;;;;;;6.10;99.90;;;;;;5041169;28;19928;-84
2023/12/16 05:04:23;;;;;;;;;;;6.10;99.90;;;;;;5054426;28;19929;-85
2023/12/16 05:06:50;;;;;;;;;;;6.10;99.90;;;;;;5052268;28;20020;-84
2023/12/16 05:09:17;;;;;;;;;;;6.10;99.90;;;;;;5053809;28;19967;-86
2023/12/16 05:11:43;;;;;;;;;;;6.10;99.90;;;;;;5054054;28;20383;-86
2023/12/16 05:14:10;;;;;;;;;;;6.10;99.90;;;;;;5052927;28;19925;-86
2023/12/16 05:16:38;;;;;;;;;;;6.10;99.90;;;;;;5051116;28;19994;-86
2023/12/16 05:19:05;;;;;;;;;;;6.10;99.90;;;;;;5054356;28;20277;-88
2023/12/16 05:21:32;;;;;;;;;;;6.20;99.90;;;;;;5054751;28;20434;-86
2023/12/16 05:23:58;;;;;;;;;;;6.20;99.90;;;;;;5055685;28;20318;-83
2023/12/16 05:26:25;;;;;;;;;;;6.30;99.90;;;;;;5051007;28;19971;-83
2023/12/16 05:28:52;;;;;;;;;;;6.40;99.90;;;;;;5055432;28;19994;-85
2023/12/16 05:31:18;;;;;;;;;;;6.40;99.90;;;;;;5053500;28;20292;-84
2023/12/16 05:33:47;;;;;;;;;;;6.50;99.90;;;;;;5054922;28;19924;-88
2023/12/16 05:36:13;;;;;;;;;;;6.50;99.90;;;;;;5053514;28;19979;-88
2023/12/16 05:38:40;;;;;;;;;;;6.50;99.90;;;;;;5053502;28;19978;-89
2023/12/16 05:41:07;;;;;;;;;;;6.50;99.90;;;;;;5053900;28;19925;-82
2023/12/16 05:43:34;;;;;;;;;;;6.50;99.90;;;;;;5052859;28;20396;-82
2023/12/16 05:46:00;;;;;;;;;;;6.50;99.90;;;;;;5040325;28;20354;-82
2023/12/16 05:48:27;;;;;;;;;;;6.40;99.90;;;;;;5052507;28;19925;-84
2023/12/16 05:50:56;;;;;;;;;;;6.50;99.90;;;;;;5053361;28;19925;-85
2023/12/16 05:53:23;;;;;;;;;;;6.40;99.90;;;;;;5053298;28;19936;-85
2023/12/16 05:55:50;;;;;;;;;;;6.40;99.90;;;;;;5053882;28;19924;-87
2023/12/16 05:58:16;;;;;;;;;;;6.40;99.90;;;;;;5051969;28;20376;-88
2023/12/16 06:00:42;;;;;;;;;;;6.40;99.90;;;;;;5054656;28;19979;-88
2023/12/16 06:03:09;;;;;;;;;;;6.30;99.90;;;;;;5053086;28;19925;-80
2023/12/16 06:05:35;;;;;;;;;;;6.30;99.90;;;;;;5050763;28;19964;-80
2023/12/16 06:08:04;;;;;;;;;;;6.30;99.90;;;;;;5051547;28;20383;-79
2023/12/16 06:10:31;;;;;;;;;;;6.30;99.90;;;;;;5051785;28;19967;-78
2023/12/16 06:12:57;;;;;;;;;;;6.30;99.90;;;;;;5056191;28;19976;-79
2023/12/16 06:15:25;;;;;;;;;;;6.20;99.90;;;;;;5044458;28;19925;-79
2023/12/16 06:17:51;;;;;;;;;;;6.20;99.90;;;;;;5047577;28;19929;-76
2023/12/16 06:20:18;;;;;;;;;;;6.20;99.90;;;;;;5049991;28;19947;-80
2023/12/16 06:22:45;;;;;;;;;;;6.20;99.90;;;;;;5050851;28;20046;-79
2023/12/16 06:25:13;;;;;;;;;;;6.20;99.90;;;;;;5036444;28;20399;-80
2023/12/16 06:27:40;;;;;;;;;;;6.20;99.90;;;;;;5051082;28;19990;-81
2023/12/16 06:30:08;;;;;;;;;;;6.20;99.90;;;;;;5050108;28;19928;-78
2023/12/16 06:32:35;;;;;;;;;;;6.20;99.90;;;;;;5050787;28;20016;-77
2023/12/16 06:35:02;;;;;;;;;;;6.20;99.90;;;;;;5050096;28;19929;-75
2023/12/16 06:37:29;;;;;;;;;;;6.20;99.90;;;;;;5056787;28;19931;-76
2023/12/16 06:39:55;;;;;;;;;;;6.30;99.90;;;;;;5053681;28;19973;-74
2023/12/16 06:42:23;;;;;;;;;;;6.30;99.90;;;;;;5052767;28;20350;-74
2023/12/16 06:44:50;;;;;;;;;;;6.30;99.90;;;;;;5055829;28;19935;-79
2023/12/16 06:47:17;;;;;;;;;;;6.30;99.90;;;;;;5054294;28;19925;-80
2023/12/16 06:49:44;;;;;;;;;;;6.40;99.90;;;;;;5052347;28;19972;-78
2023/12/16 06:52:10;;;;;;;;;;;6.60;99.90;;;;;;5050669;28;19981;-79
2023/12/16 06:54:37;;;;;;;;;;;6.60;99.90;;;;;;5055621;28;19925;-77
2023/12/16 06:57:04;;;;;;;;;;;6.70;99.90;;;;;;5051965;28;19983;-79
2023/12/16 06:59:32;;;;;;;;;;;6.80;99.90;;;;;;5054290;28;19925;-76
2023/12/16 07:01:59;;;;;;;;;;;6.80;99.90;;;;;;5054743;28;19951;-80
2023/12/16 07:04:26;;;;;;;;;;;6.90;99.90;;;;;;5055535;28;20437;-80
2023/12/16 07:06:53;;;;;;;;;;;6.90;99.90;;;;;;5054644;28;19929;-79
2023/12/16 07:09:20;;;;;;;;;;;6.90;99.90;;;;;;5056218;28;20380;-78
2023/12/16 07:11:46;;;;;;;;;;;6.90;99.90;;;;;;5054071;28;19929;-80
2023/12/16 07:14:13;;;;;;;;;;;6.90;99.90;;;;;;5053533;28;19928;-78
2023/12/16 07:16:41;;;;;;;;;;;7.00;99.90;;;;;;5053865;28;19984;-78
2023/12/16 07:19:08;;;;;;;;;;;7.00;99.90;;;;;;5052175;28;20427;-78
2023/12/16 07:21:35;;;;;;;;;;;7.00;99.90;;;;;;5052968;28;19929;-80
2023/12/16 07:24:01;;;;;;;;;;;7.00;99.90;;;;;;5062408;28;19978;-79
2023/12/16 07:26:28;;;;;;;;;;;7.00;99.90;;;;;;5061834;28;19986;-80
2023/12/16 07:28:55;;;;;;;;;;;7.00;99.90;;;;;;5054318;28;19925;-80
2023/12/16 07:31:22;;;;;;;;;;;7.00;99.90;;;;;;5052190;28;19987;-78
2023/12/16 07:33:50;;;;;;;;;;;7.00;99.90;;;;;;5053189;28;19925;-78
2023/12/16 07:36:17;;;;;;;;;;;7.00;99.90;;;;;;5053147;28;19925;-79
2023/12/16 07:38:44;;;;;;;;;;;7.00;99.90;;;;;;5055022;28;19924;-79
2023/12/16 07:41:11;;;;;;;;;;;7.10;99.90;;;;;;5065352;28;19932;-80
2023/12/16 07:43:38;;;;;;;;;;;7.10;99.90;;;;;;5056498;28;19979;-78
2023/12/16 07:46:05;;;;;;;;;;;7.10;99.90;;;;;;5053650;28;19979;-78
2023/12/16 07:48:33;;;;;;;;;;;7.10;99.90;;;;;;5052529;28;19928;-81
2023/12/16 07:51:01;;;;;;;;;;;7.10;99.90;;;;;;5052127;28;19960;-79
2023/12/16 07:53:28;;;;;;;;;;;7.10;99.90;;;;;;5053608;28;20315;-79
2023/12/16 07:55:54;;;;;;;;;;;7.10;99.90;;;;;;5051479;28;19929;-80
2023/12/16 07:58:21;;;;;;;;;;;7.20;99.90;;;;;;5052274;28;19968;-78
2023/12/16 08:00:48;;;;;;;;;;;7.20;99.90;;;;;;5050187;28;19974;-80
2023/12/16 08:03:15;;;;;;;;;;;7.20;99.90;;;;;;5053163;28;19971;-81
2023/12/16 08:05:42;;;;;;;;;;;7.20;99.90;;;;;;5054704;28;19982;-83
2023/12/16 08:08:10;;;;;;;;;;;7.30;99.90;;;;;;5053214;28;20346;-82
2023/12/16 08:10:37;;;;;;;;;;;7.30;99.90;;;;;;5052803;28;19925;-81
2023/12/16 08:13:03;;;;;;;;;;;7.30;99.90;;;;;;5056658;28;19932;-81
2023/12/16 08:15:30;;;;;;;;;;;7.40;99.90;;;;;;5052027;28;19971;-82
2023/12/16 08:17:57;;;;;;;;;;;7.40;99.90;;;;;;5049451;28;20209;-79
2023/12/16 08:20:24;;;;;;;;;;;7.50;99.90;;;;;;5051457;28;20029;-76
2023/12/16 08:22:50;;;;;;;;;;;7.50;99.90;;;;;;5048108;28;19998;-81
2023/12/16 08:25:18;;;;;;;;;;;7.60;99.90;;;;;;5051971;28;19925;-79
2023/12/16 08:27:45;;;;;;;;;;;7.70;99.90;;;;;;5054201;28;20269;-78
2023/12/16 08:30:13;;;;;;;;;;;7.70;99.90;;;;;;5052295;28;20007;-80
2023/12/16 08:32:40;;;;;;;;;;;7.80;99.90;;;;;;5053604;28;19925;-85
2023/12/16 08:35:07;;;;;;;;;;;7.80;99.90;;;;;;5054554;28;19925;-80
2023/12/16 08:37:34;;;;;;;;;;;7.80;99.90;;;;;;5053367;28;20383;-85
2023/12/16 08:40:01;;;;;;;;;;;7.80;99.90;;;;;;5054628;28;19964;-86
2023/12/16 08:42:29;;;;;;;;;;;7.90;99.90;;;;;;5055250;28;19925;-83
2023/12/16 08:44:56;;;;;;;;;;;7.90;99.90;;;;;;5053946;28;19936;-87
2023/12/16 08:47:23;;;;;;;;;;;8.00;99.90;;;;;;5052437;28;19964;-85
2023/12/16 08:49:49;;;;;;;;;;;8.00;99.90;;;;;;5052095;28;19925;-87
2023/12/16 08:52:16;;;;;;;;;;;8.00;99.90;;;;;;5055136;28;19990;-88
2023/12/16 08:54:43;;;;;;;;;;;8.10;99.90;;;;;;5056703;28;19929;-86
2023/12/16 08:57:10;;;;;;;;;;;8.20;99.90;;;;;;5044602;28;21137;-79
2023/12/16 08:59:38;;;;;;;;;;;8.20;99.90;;;;;;5042008;28;19924;-80
2023/12/16 09:02:05;;;;;;;;;;;8.20;99.90;;;;;;5048515;28;19928;-80
2023/12/16 09:04:32;;;;;;;;;;;8.20;99.90;;;;;;5039624;28;20350;-82
2023/12/16 09:06:58;;;;;;;;;;;8.30;99.90;;;;;;5056949;28;19967;-80
2023/12/16 09:09:25;;;;;;;;;;;8.30;99.90;;;;;;5055144;28;19924;-79
2023/12/16 09:11:52;;;;;;;;;;;8.40;99.90;;;;;;5050712;28;20461;-80
2023/12/16 09:14:19;;;;;;;;;;;8.40;99.90;;;;;;5041495;28;19947;-80
2023/12/16 09:16:47;;;;;;;;;;;8.40;99.90;;;;;;5051394;28;19928;-79
2023/12/16 09:19:13;;;;;;;;;;;8.50;99.90;;;;;;5049768;28;20458;-79
2023/12/16 09:21:40;;;;;;;;;;;8.50;99.90;;;;;;5051355;28;19924;-80
2023/12/16 09:24:07;;;;;;;;;;;8.50;99.90;;;;;;5054902;28;20471;-84
2023/12/16 09:26:33;;;;;;;;;;;8.50;99.90;;;;;;5050146;28;19924;-90
2023/12/16 09:29:00;;;;;;;;;;;8.50;99.90;;;;;;5059353;28;19925;-85
2023/12/16 09:31:27;;;;;;;;;;;8.60;99.90;;;;;;5060229;28;19925;-87
2023/12/16 09:33:55;;;;;;;;;;;8.70;99.90;;;;;;5071170;28;19925;-88
2023/12/16 09:36:26;;;;;;;;;;;8.70;99.90;;;;;;5055570;28;19932;-88
2023/12/16 09:38:53;;;;;;;;;;;8.70;99.90;;;;;;5055538;28;20295;-89
2023/12/16 09:41:22;;;;;;;;;;;8.80;99.90;;;;;;5053348;28;19925;-87
2023/12/16 09:43:50;;;;;;;;;;;8.80;99.90;;;;;;5053940;28;19968;-89
2023/12/16 09:46:17;;;;;;;;;;;8.80;99.90;;;;;;5057623;28;19925;-89
2023/12/16 09:48:44;;;;;;;;;;;8.80;99.90;;;;;;5057145;28;20428;-83
2023/12/16 09:51:13;;;;;;;;;;;8.80;99.90;;;;;;5060400;28;19925;-88
2023/12/16 09:53:40;;;;;;;;;;;8.90;99.90;;;;;;5048197;28;19929;-88
2023/12/16 09:56:07;;;;;;;;;;;8.90;99.90;;;;;;5045294;28;19924;-89
2023/12/16 09:58:34;;;;;;;;;;;8.90;99.90;;;;;;5057784;28;19932;-90
2023/12/16 10:01:02;;;;;;;;;;;8.90;99.90;;;;;;5055008;28;19924;-86
2023/12/16 10:03:29;;;;;;;;;;;9.00;99.90;;;;;;5046458;28;19932;-79
2023/12/16 10:05:56;;;;;;;;;;;9.00;99.90;;;;;;5055478;28;20070;-78
2023/12/16 10:08:24;;;;;;;;;;;9.00;99.90;;;;;;5048304;28;20006;-77
2023/12/16 10:10:57;;;;;;;;;;;9.00;99.90;;;;;;5049951;28;19932;-77
2023/12/16 10:13:24;;;;;;;;;;;9.10;99.90;;;;;;5047970;28;19925;-78
2023/12/16 10:15:50;;;;;;;;;;;9.10;99.90;;;;;;5045822;28;19990;-77
2023/12/16 10:18:18;;;;;;;;;;;9.10;99.90;;;;;;5048452;28;19931;-78
2023/12/16 10:20:45;;;;;;;;;;;9.10;99.90;;;;;;5050227;28;19978;-77
2023/12/16 10:23:13;;;;;;;;;;;9.20;99.90;;;;;;5050294;28;19929;-78
2023/12/16 10:25:41;;;;;;;;;;;9.20;99.90;;;;;;5046713;28;19976;-80
2023/12/16 10:28:08;;;;;;;;;;;9.20;99.90;;;;;;5048199;28;19940;-79
2023/12/16 10:30:35;;;;;;;;;;;9.20;99.90;;;;;;5052684;28;19940;-80
2023/12/16 10:33:03;;;;;;;;;;;9.30;99.90;;;;;;5054197;28;20002;-73
2023/12/16 10:35:30;;;;;;;;;;;9.30;99.90;;;;;;5044749;28;19960;-74
2023/12/16 10:37:57;;;;;;;;;;;9.30;99.90;;;;;;5048485;28;19932;-74
2023/12/16 10:40:24;;;;;;;;;;;9.30;99.90;;;;;;5046083;28;20410;-73
2023/12/16 10:42:53;;;;;;;;;;;9.30;99.90;;;;;;5047674;28;20011;-73
2023/12/16 10:45:20;;;;;;;;;;;9.40;99.90;;;;;;5043452;28;20367;-73
2023/12/16 10:47:48;;;;;;;;;;;9.40;99.90;;;;;;5041580;28;19975;-73
2023/12/16 10:50:16;;;;;;;;;;;9.40;99.90;;;;;;5053981;28;19925;-74
2023/12/16 10:52:46;;;;;;;;;;;9.50;99.90;;;;;;5047087;28;19924;-73
2023/12/16 10:55:17;;;;;;;;;;;9.60;99.90;;;;;;5051597;28;19928;-75
2023/12/16 10:57:47;;;;;;;;;;;9.50;99.90;;;;;;5044561;28;19925;-74
2023/12/16 11:00:17;;;;;;;;;;;9.60;99.90;;;;;;5049818;28;19929;-74
2023/12/16 11:02:47;;;;;;;;;;;9.60;99.90;;;;;;5046802;28;19924;-75
2023/12/16 11:05:17;;;;;;;;;;;9.60;99.90;;;;;;5055006;28;20787;-73
2023/12/16 11:07:44;;;;;;;;;;;9.60;99.90;;;;;;5049368;28;20411;-75
2023/12/16 11:10:11;;;;;;;;;;;9.60;99.90;;;;;;5044201;28;19968;-73
2023/12/16 11:12:38;;;;;;;;;;;9.60;99.90;;;;;;5044491;28;19974;-75
2023/12/16 11:15:07;;;;;;;;;;;9.60;99.90;;;;;;5047702;28;19972;-73
2023/12/16 11:17:42;;;;;;;;;;;9.60;99.90;;;;;;5048715;28;19925;-78
2023/12/16 11:20:13;;;;;;;;;;;9.60;99.90;;;;;;5050714;28;19979;-73
2023/12/16 11:22:44;;;;;;;;;;;9.60;99.90;;;;;;5049200;28;19925;-75
2023/12/16 11:25:16;;;;;;;;;;;9.70;99.90;;;;;;5056841;28;19982;-74
2023/12/16 11:27:43;;;;;;;;;;;9.60;99.90;;;;;;5056708;28;19972;-78
2023/12/16 11:30:13;;;;;;;;;;;9.70;99.90;;;;;;5054250;28;19928;-78
2023/12/16 11:32:42;;;;;;;;;;;9.60;99.90;;;;;;5048206;28;19933;-76
2023/12/16 11:35:09;;;;;;;;;;;9.60;99.90;;;;;;5047182;28;19971;-76
2023/12/16 11:37:42;;;;;;;;;;;9.60;99.90;;;;;;5052410;28;19994;-75
2023/12/16 11:40:30;;;;;;;;;;;9.60;99.90;;;;;;5050955;28;19932;-75
2023/12/16 11:43:02;;;;;;;;;;;9.60;99.90;;;;;;5052001;28;19928;-77
2023/12/16 11:45:37;;;;;;;;;;;9.60;99.90;;;;;;5043757;28;19933;-76
2023/12/16 11:48:06;;;;;;;;;;;9.60;99.90;;;;;;5059456;28;19952;-83
2023/12/16 11:50:34;;;;;;;;;;;9.70;99.90;;;;;;5055125;28;19990;-75
2023/12/16 11:53:01;;;;;;;;;;;9.70;99.90;;;;;;5048971;28;20339;-76
2023/12/16 11:55:27;;;;;;;;;;;9.70;99.90;;;;;;5048898;28;20340;-73
2023/12/16 11:57:54;;;;;;;;;;;9.70;99.90;;;;;;5049878;28;19934;-72
2023/12/16 12:00:22;;;;;;;;;;;9.70;99.90;;;;;;5046887;28;19929;-74
2023/12/16 12:02:50;;;;;;;;;;;9.70;99.90;;;;;;5047614;28;19929;-72
2023/12/16 12:05:19;;;;;;;;;;;9.60;99.90;;;;;;5046353;28;20326;-73
2023/12/16 12:07:46;;;;;;;;;;;9.70;99.90;;;;;;5046487;28;19978;-72
2023/12/16 12:10:13;;;;;;;;;;;9.70;99.90;;;;;;5040655;28;19970;-73
2023/12/16 12:12:40;;;;;;;;;;;9.70;99.90;;;;;;5045514;28;20471;-74
2023/12/16 12:15:07;;;;;;;;;;;9.70;99.90;;;;;;5043440;28;20018;-73
2023/12/16 12:17:34;;;;;;;;;;;9.70;99.90;;;;;;5046143;28;19952;-74
2023/12/16 12:20:01;;;;;;;;;;;9.70;99.90;;;;;;5039125;28;19932;-73
2023/12/16 12:22:29;;;;;;;;;;;9.60;99.90;;;;;;5045195;28;19968;-75
2023/12/16 12:24:56;;;;;;;;;;;9.60;99.90;;;;;;5046448;28;19929;-74
2023/12/16 12:27:23;;;;;;;;;;;9.60;99.90;;;;;;5048080;28;21994;-75
2023/12/16 12:29:54;;;;;;;;;;;9.70;99.90;;;;;;5044354;28;19980;-75
2023/12/16 12:32:21;;;;;;;;;;;9.70;99.90;;;;;;5049057;28;19925;-74
2023/12/16 12:34:57;;;;;;;;;;;9.70;99.90;;;;;;5047984;28;20016;-74
2023/12/16 12:37:25;;;;;;;;;;;9.60;99.90;;;;;;5043923;28;19924;-74
2023/12/16 12:39:57;;;;;;;;;;;9.70;99.90;;;;;;5048872;28;19947;-75
2023/12/16 12:42:24;;;;;;;;;;;9.60;99.90;;;;;;5048739;28;19968;-77
2023/12/16 12:44:51;;;;;;;;;;;9.70;99.90;;;;;;5047492;28;19933;-75
2023/12/16 12:47:27;;;;;;;;;;;9.70;99.90;;;;;;5044649;28;19929;-75
2023/12/16 12:49:54;;;;;;;;;;;9.70;99.90;;;;;;5046170;28;20368;-74
2023/12/16 12:52:21;;;;;;;;;;;9.70;99.90;;;;;;5049511;28;19960;-75
2023/12/16 12:54:48;;;;;;;;;;;9.70;99.90;;;;;;5046920;28;19928;-73
2023/12/16 12:57:20;;;;;;;;;;;9.70;99.90;;;;;;5043033;28;20344;-73
2023/12/16 12:59:48;;;;;;;;;;;9.70;99.90;;;;;;5044567;28;19971;-74
2023/12/16 13:02:15;;;;;;;;;;;9.60;99.90;;;;;;5048099;28;19979;-75
2023/12/16 13:04:44;;;;;;;;;;;9.60;99.90;;;;;;5042762;28;19925;-73
2023/12/16 13:07:10;;;;;;;;;;;9.60;99.90;;;;;;5036880;28;20006;-74
2023/12/16 13:09:37;;;;;;;;;;;9.50;99.90;;;;;;5043115;28;19937;-75
2023/12/16 13:12:05;;;;;;;;;;;9.60;99.90;;;;;;5043052;28;19924;-74
2023/12/16 13:14:33;;;;;;;;;;;9.60;99.90;;;;;;5048590;28;19979;-73
2023/12/16 13:17:00;;;;;;;;;;;9.60;99.90;;;;;;5041159;28;20344;-74
2023/12/16 13:19:27;;;;;;;;;;;9.60;99.90;;;;;;5046185;28;19932;-74
2023/12/16 13:21:53;;;;;;;;;;;9.60;99.90;;;;;;5047714;28;19937;-74
2023/12/16 13:24:20;;;;;;;;;;;9.70;99.90;;;;;;5049162;28;20299;-74
2023/12/16 13:26:47;;;;;;;;;;;9.70;99.90;;;;;;5046745;28;19984;-74
2023/12/16 13:29:16;;;;;;;;;;;9.70;99.90;;;;;;5044325;28;20015;-74
2023/12/16 13:31:44;;;;;;;;;;;9.70;99.90;;;;;;5049331;28;20380;-73
2023/12/16 13:34:12;;;;;;;;;;;9.70;99.90;;;;;;5042233;28;19924;-73
2023/12/16 13:36:39;;;;;;;;;;;9.70;99.90;;;;;;5041855;28;19928;-74
2023/12/16 13:39:06;;;;;;;;;;;9.70;99.90;;;;;;5042940;28;19979;-73
2023/12/16 13:41:33;;;;;;;;;;;9.70;99.90;;;;;;5044610;28;19967;-73
2023/12/16 13:43:59;;;;;;;;;;;9.70;99.90;;;;;;5046486;28;19954;-73
2023/12/16 13:46:26;;;;;;;;;;;9.70;99.90;;;;;;5043610;28;20065;-74
2023/12/16 13:48:54;;;;;;;;;;;9.70;99.90;;;;;;5039808;28;19955;-72
2023/12/16 13:51:21;;;;;;;;;;;9.70;99.90;;;;;;5045125;28;19925;-74
2023/12/16 13:53:48;;;;;;;;;;;9.70;99.90;;;;;;5046550;28;19950;-71
2023/12/16 13:56:15;;;;;;;;;;;9.70;99.90;;;;;;5046886;28;20384;-72
2023/12/16 13:58:42;;;;;;;;;;;9.70;99.90;;;;;;5050201;28;19928;-72
2023/12/16 14:01:09;;;;;;;;;;;9.70;99.90;;;;;;5051825;28;20314;-72
2023/12/16 14:03:36;;;;;;;;;;;9.70;99.90;;;;;;5050894;28;20334;-72
2023/12/16 14:06:04;;;;;;;;;;;9.70;99.90;;;;;;5050766;28;19971;-72
2023/12/16 14:08:33;;;;;;;;;;;9.70;99.90;;;;;;5043281;28;20199;-71
2023/12/16 14:10:59;;;;;;;;;;;9.70;99.90;;;;;;5047424;28;20690;-71
2023/12/16 14:13:26;;;;;;;;;;;9.70;99.90;;;;;;5048941;28;19986;-72
2023/12/16 14:15:53;;;;;;;;;;;9.70;99.90;;;;;;5048220;28;20019;-72
2023/12/16 14:18:20;;;;;;;;;;;9.70;99.90;;;;;;5048256;28;19924;-72
2023/12/16 14:20:46;;;;;;;;;;;9.70;99.90;;;;;;5048494;28;19956;-71
2023/12/16 14:23:15;;;;;;;;;;;9.70;99.90;;;;;;5050064;28;19978;-72
2023/12/16 14:25:41;;;;;;;;;;;9.70;99.90;;;;;;5048894;28;19925;-72
2023/12/16 14:28:08;;;;;;;;;;;9.70;99.90;;;;;;5050534;28;20373;-71
2023/12/16 14:30:35;;;;;;;;;;;9.70;99.90;;;;;;5045331;28;20003;-71